Time;durP1;ratioP1;P1;durP2;ratioP2;P2;SDS_P1;SDS_P2;PMS_P1;PMS_P2;Temp;Humidity;BMP_temperature;BMP_pressure;BME280_temperature;BME280_humidity;BME280_pressure;Samples;Min_cycle;Max_cycle;Signal;HPM_P1;HPM_P2
2022/10/23 00:00:30;;;;;;;;;;;16.20;73.20;;;;;;5106587;27;19916;-81
2022/10/23 00:02:58;;;;;;;;;;;16.10;72.50;;;;;;5094803;27;19924;-80
2022/10/23 00:05:24;;;;;;;;;;;16.10;72.60;;;;;;5110353;27;20427;-80
2022/10/23 00:07:54;;;;;;;;;;;16.10;72.60;;;;;;5067574;28;19916;-80
2022/10/23 00:10:20;;;;;;;;;;;16.10;72.60;;;;;;5113125;27;19918;-81
2022/10/23 00:12:46;;;;;;;;;;;16.10;72.60;;;;;;5107398;27;19931;-81
2022/10/23 00:15:12;;;;;;;;;;;16.10;72.60;;;;;;5107407;28;19919;-80
2022/10/23 00:17:38;;;;;;;;;;;16.10;72.60;;;;;;5111995;27;19927;-81
2022/10/23 00:20:04;;;;;;;;;;;16.10;72.60;;;;;;5130904;27;19916;-80
2022/10/23 00:22:30;;;;;;;;;;;16.10;72.60;;;;;;5117270;27;19942;-80
2022/10/23 00:24:56;;;;;;;;;;;16.10;72.70;;;;;;5118134;27;20384;-80
2022/10/23 00:27:21;;;;;;;;;;;16.00;72.60;;;;;;5112110;27;19912;-80
2022/10/23 00:29:47;;;;;;;;;;;16.00;72.60;;;;;;5110018;27;20014;-80
2022/10/23 00:32:12;;;;;;;;;;;16.00;72.60;;;;;;5095316;27;19998;-80
2022/10/23 00:34:38;;;;;;;;;;;16.00;72.60;;;;;;5111336;27;19916;-80
2022/10/23 00:37:04;;;;;;;;;;;16.00;72.60;;;;;;5107219;27;19923;-80
2022/10/23 00:39:29;;;;;;;;;;;16.00;72.60;;;;;;5104775;27;19916;-83
2022/10/23 00:41:55;;;;;;;;;;;16.00;72.70;;;;;;5096686;28;19919;-80
2022/10/23 00:44:21;;;;;;;;;;;16.00;72.70;;;;;;5110838;28;19960;-80
2022/10/23 00:46:46;;;;;;;;;;;16.00;72.70;;;;;;5113122;27;19919;-80
2022/10/23 00:49:12;;;;;;;;;;;16.00;72.70;;;;;;5085242;28;19912;-80
2022/10/23 00:51:40;;;;;;;;;;;16.00;72.80;;;;;;5111074;28;20337;-80
2022/10/23 00:54:05;;;;;;;;;;;16.00;72.70;;;;;;5104832;27;19971;-80
2022/10/23 00:56:32;;;;;;;;;;;16.00;72.70;;;;;;5114585;27;20387;-80
2022/10/23 00:58:58;;;;;;;;;;;16.00;72.70;;;;;;5114362;27;19920;-81
2022/10/23 01:01:25;;;;;;;;;;;15.90;72.70;;;;;;5095775;28;19916;-80
2022/10/23 01:03:51;;;;;;;;;;;15.90;72.70;;;;;;5112517;27;19974;-80
2022/10/23 01:06:29;;;;;;;;;;;15.90;72.70;;;;;;5131487;27;19949;-80
2022/10/23 01:08:54;;;;;;;;;;;15.90;72.70;;;;;;5114340;27;19915;-80
2022/10/23 01:11:26;;;;;;;;;;;15.90;72.70;;;;;;5114749;27;19916;-80
2022/10/23 01:14:04;;;;;;;;;;;15.90;72.70;;;;;;5109129;27;19923;-80
2022/10/23 01:16:48;;;;;;;;;;;15.90;72.70;;;;;;5112554;27;20328;-80
2022/10/23 01:19:27;;;;;;;;;;;15.90;72.70;;;;;;5102820;27;20981;-80
2022/10/23 01:22:11;;;;;;;;;;;15.90;72.80;;;;;;5091569;28;19916;-80
2022/10/23 01:24:45;;;;;;;;;;;15.90;72.80;;;;;;5098616;28;19916;-81
2022/10/23 01:27:13;;;;;;;;;;;15.80;72.80;;;;;;5106156;27;19916;-80
2022/10/23 01:29:39;;;;;;;;;;;15.80;72.80;;;;;;5090118;28;19912;-81
2022/10/23 01:32:13;;;;;;;;;;;15.80;72.80;;;;;;5093556;28;19912;-80
2022/10/23 01:34:39;;;;;;;;;;;15.80;72.80;;;;;;5109521;27;19976;-80
2022/10/23 01:37:09;;;;;;;;;;;15.80;72.80;;;;;;5103984;27;19912;-79
2022/10/23 01:39:37;;;;;;;;;;;15.80;72.80;;;;;;5094379;27;20372;-79
2022/10/23 01:42:05;;;;;;;;;;;15.80;72.80;;;;;;5093259;28;20257;-79
2022/10/23 01:44:37;;;;;;;;;;;15.80;72.80;;;;;;5098545;27;19947;-79
2022/10/23 01:47:04;;;;;;;;;;;15.80;72.80;;;;;;5108978;27;19919;-79
2022/10/23 01:49:34;;;;;;;;;;;15.80;72.80;;;;;;5086377;28;19944;-79
2022/10/23 01:52:01;;;;;;;;;;;15.80;72.80;;;;;;5110890;27;19947;-79
2022/10/23 01:54:29;;;;;;;;;;;15.80;72.80;;;;;;5101938;27;19916;-81
2022/10/23 01:56:56;;;;;;;;;;;15.70;72.80;;;;;;5085742;28;20265;-80
2022/10/23 01:59:29;;;;;;;;;;;15.70;72.80;;;;;;5111534;27;20001;-80
2022/10/23 02:01:56;;;;;;;;;;;15.70;72.80;;;;;;5106304;28;19919;-80
2022/10/23 02:04:25;;;;;;;;;;;15.80;72.90;;;;;;5106117;28;20049;-79
2022/10/23 02:06:51;;;;;;;;;;;15.70;72.80;;;;;;5094914;28;19920;-80
2022/10/23 02:09:17;;;;;;;;;;;15.70;72.80;;;;;;5091022;28;19926;-79
2022/10/23 02:12:03;;;;;;;;;;;15.70;72.90;;;;;;5094732;28;19924;-80
2022/10/23 02:14:39;;;;;;;;;;;15.70;72.90;;;;;;5048576;28;20282;-81
2022/10/23 02:17:11;;;;;;;;;;;15.70;72.90;;;;;;5093171;28;19923;-80
2022/10/23 02:19:44;;;;;;;;;;;15.70;72.90;;;;;;5112994;27;19915;-82
2022/10/23 02:22:13;;;;;;;;;;;15.60;72.90;;;;;;5110258;28;19918;-80
2022/10/23 02:24:59;;;;;;;;;;;15.70;72.90;;;;;;5106062;28;19911;-80
2022/10/23 02:27:36;;;;;;;;;;;15.70;72.90;;;;;;5107618;28;20359;-81
2022/10/23 02:30:06;;;;;;;;;;;15.70;72.90;;;;;;5107321;28;19927;-80
2022/10/23 02:32:33;;;;;;;;;;;15.60;72.90;;;;;;5106026;28;20429;-79
2022/10/23 02:35:00;;;;;;;;;;;15.60;72.90;;;;;;5091362;28;19922;-79
2022/10/23 02:37:26;;;;;;;;;;;15.60;72.90;;;;;;5087638;28;19911;-80
2022/10/23 02:39:53;;;;;;;;;;;15.60;72.90;;;;;;5113196;28;19912;-79
2022/10/23 02:42:28;;;;;;;;;;;15.60;72.90;;;;;;5105419;28;19920;-81
2022/10/23 02:44:54;;;;;;;;;;;15.60;72.90;;;;;;5110755;27;19927;-79
2022/10/23 02:47:28;;;;;;;;;;;15.60;72.90;;;;;;5097124;27;19912;-80
2022/10/23 02:50:14;;;;;;;;;;;15.60;72.90;;;;;;5109827;28;20180;-80
2022/10/23 02:53:01;;;;;;;;;;;15.60;72.90;;;;;;5098543;27;19915;-81
2022/10/23 02:55:38;;;;;;;;;;;15.60;72.90;;;;;;5087642;27;19916;-80
2022/10/23 02:58:17;;;;;;;;;;;15.60;72.90;;;;;;5117602;27;19912;-80
2022/10/23 03:00:48;;;;;;;;;;;15.60;73.00;;;;;;5093469;27;19961;-80
2022/10/23 03:03:16;;;;;;;;;;;15.60;73.00;;;;;;5117688;27;19927;-80
2022/10/23 03:05:43;;;;;;;;;;;15.60;73.00;;;;;;5100858;27;19919;-81
2022/10/23 03:08:11;;;;;;;;;;;15.60;73.00;;;;;;5083990;27;20379;-79
2022/10/23 03:10:36;;;;;;;;;;;15.50;72.90;;;;;;5115876;27;19912;-80
2022/10/23 03:13:03;;;;;;;;;;;15.60;73.00;;;;;;5089904;28;19999;-80
2022/10/23 03:15:36;;;;;;;;;;;15.60;73.00;;;;;;5085802;27;19951;-80
2022/10/23 03:18:02;;;;;;;;;;;15.50;72.90;;;;;;5120042;27;19954;-79
2022/10/23 03:20:28;;;;;;;;;;;15.50;73.00;;;;;;5113745;27;19915;-79
2022/10/23 03:22:53;;;;;;;;;;;15.50;72.90;;;;;;5105415;27;19935;-80
2022/10/23 03:25:19;;;;;;;;;;;15.50;73.00;;;;;;5083341;27;20034;-80
2022/10/23 03:27:45;;;;;;;;;;;15.50;73.00;;;;;;5082719;28;19923;-79
2022/10/23 03:30:14;;;;;;;;;;;15.50;73.00;;;;;;5112306;27;20364;-80
2022/10/23 03:32:40;;;;;;;;;;;15.50;73.00;;;;;;5111419;28;19919;-80
2022/10/23 03:35:05;;;;;;;;;;;15.40;72.90;;;;;;5100442;27;19915;-79
2022/10/23 03:37:31;;;;;;;;;;;15.50;73.00;;;;;;5099860;28;19912;-79
2022/10/23 03:39:57;;;;;;;;;;;15.50;73.00;;;;;;5097911;28;19924;-81
2022/10/23 03:42:22;;;;;;;;;;;15.40;73.00;;;;;;5107373;27;19931;-80
2022/10/23 03:44:49;;;;;;;;;;;15.40;73.00;;;;;;5111427;28;19959;-79
2022/10/23 03:47:14;;;;;;;;;;;15.40;73.00;;;;;;5098245;27;19923;-80
2022/10/23 03:49:40;;;;;;;;;;;15.40;73.00;;;;;;5109457;28;19923;-80
2022/10/23 03:52:06;;;;;;;;;;;15.40;73.00;;;;;;5099738;28;20391;-81
2022/10/23 03:54:32;;;;;;;;;;;15.50;73.10;;;;;;5094174;28;19997;-82
2022/10/23 03:56:58;;;;;;;;;;;15.40;73.00;;;;;;5077852;28;19977;-80
2022/10/23 03:59:25;;;;;;;;;;;15.50;73.10;;;;;;5090937;28;20371;-80
2022/10/23 04:01:51;;;;;;;;;;;15.40;73.00;;;;;;5096686;28;20003;-81
2022/10/23 04:04:17;;;;;;;;;;;15.40;73.00;;;;;;5105569;28;20081;-80
2022/10/23 04:06:43;;;;;;;;;;;15.40;73.00;;;;;;5103002;27;20276;-81
2022/10/23 04:09:09;;;;;;;;;;;15.40;73.00;;;;;;5103803;27;19919;-80
2022/10/23 04:11:34;;;;;;;;;;;15.40;73.00;;;;;;5106548;27;19919;-79
2022/10/23 04:14:00;;;;;;;;;;;15.40;73.00;;;;;;5112003;27;20011;-80
2022/10/23 04:16:26;;;;;;;;;;;15.40;73.30;;;;;;5096062;27;20370;-80
2022/10/23 04:18:52;;;;;;;;;;;15.40;73.10;;;;;;5106879;27;19912;-80
2022/10/23 04:21:17;;;;;;;;;;;15.40;73.10;;;;;;5103722;27;19926;-80
2022/10/23 04:23:43;;;;;;;;;;;15.40;73.10;;;;;;5099603;28;19919;-80
2022/10/23 04:26:14;;;;;;;;;;;15.40;73.10;;;;;;5108276;27;19923;-80
2022/10/23 04:28:40;;;;;;;;;;;15.40;73.10;;;;;;5090009;28;20775;-80
2022/10/23 04:31:05;;;;;;;;;;;15.40;73.10;;;;;;5111584;27;20315;-79
2022/10/23 04:33:32;;;;;;;;;;;15.40;73.10;;;;;;5096182;27;20014;-79
2022/10/23 04:35:57;;;;;;;;;;;15.30;73.10;;;;;;5095326;28;19999;-80
2022/10/23 04:38:24;;;;;;;;;;;15.40;73.10;;;;;;5107026;27;19958;-80
2022/10/23 04:40:50;;;;;;;;;;;15.40;73.20;;;;;;5078976;27;19998;-80
2022/10/23 04:43:20;;;;;;;;;;;15.40;73.10;;;;;;5097095;27;19924;-80
2022/10/23 04:45:47;;;;;;;;;;;15.40;73.10;;;;;;5122763;27;19918;-80
2022/10/23 04:48:12;;;;;;;;;;;15.30;73.10;;;;;;5114243;27;20423;-81
2022/10/23 04:51:11;;;;;;;;;;;15.30;73.10;;;;;;5083835;27;20022;-80
2022/10/23 04:53:56;;;;;;;;;;;15.30;73.10;;;;;;5088751;28;19919;-80
2022/10/23 04:56:33;;;;;;;;;;;15.40;73.20;;;;;;5091432;28;19940;-80
2022/10/23 04:59:04;;;;;;;;;;;15.40;73.30;;;;;;5088460;28;19923;-80
2022/10/23 05:01:30;;;;;;;;;;;15.30;73.20;;;;;;5097601;28;20060;-81
2022/10/23 05:03:57;;;;;;;;;;;15.30;73.20;;;;;;5110433;27;19928;-80
2022/10/23 05:06:22;;;;;;;;;;;15.40;73.30;;;;;;5102639;28;20285;-80
2022/10/23 05:09:06;;;;;;;;;;;15.30;73.20;;;;;;5106692;28;20365;-79
2022/10/23 05:11:39;;;;;;;;;;;15.30;73.20;;;;;;5111262;27;19916;-80
2022/10/23 05:14:07;;;;;;;;;;;15.40;73.30;;;;;;5087801;28;20008;-80
2022/10/23 05:16:38;;;;;;;;;;;15.40;73.30;;;;;;5096724;28;20048;-80
2022/10/23 05:19:06;;;;;;;;;;;15.30;73.30;;;;;;5088665;28;20353;-80
2022/10/23 05:21:33;;;;;;;;;;;15.30;73.30;;;;;;5098638;28;19933;-80
2022/10/23 05:24:00;;;;;;;;;;;15.40;73.30;;;;;;5103269;27;20607;-80
2022/10/23 05:26:27;;;;;;;;;;;15.30;73.30;;;;;;5095264;28;20257;-80
2022/10/23 05:28:53;;;;;;;;;;;15.40;73.30;;;;;;5111306;27;19924;-79
2022/10/23 05:31:20;;;;;;;;;;;15.30;73.30;;;;;;5100819;27;20363;-80
2022/10/23 05:33:48;;;;;;;;;;;15.40;73.30;;;;;;5109080;28;20006;-79
2022/10/23 05:36:15;;;;;;;;;;;15.30;73.30;;;;;;5089575;28;20010;-79
2022/10/23 05:38:42;;;;;;;;;;;15.40;73.30;;;;;;5085164;28;19973;-80
2022/10/23 05:41:12;;;;;;;;;;;15.40;74.00;;;;;;5086805;28;19959;-80
2022/10/23 05:43:38;;;;;;;;;;;15.30;73.30;;;;;;5103983;28;19994;-80
2022/10/23 05:46:24;;;;;;;;;;;15.30;73.30;;;;;;5062818;28;19922;-79
2022/10/23 05:49:07;;;;;;;;;;;15.30;73.30;;;;;;5098202;28;19955;-80
2022/10/23 05:52:10;;;;;;;;;;;15.40;73.30;;;;;;5014381;28;20366;-80
2022/10/23 05:54:46;;;;;;;;;;;15.40;73.30;;;;;;5114092;27;19912;-80
2022/10/23 05:57:19;;;;;;;;;;;15.40;73.30;;;;;;5075485;27;19916;-81
2022/10/23 05:59:50;;;;;;;;;;;15.30;73.30;;;;;;5102988;27;19919;-82
2022/10/23 06:02:41;;;;;;;;;;;15.40;73.30;;;;;;5105527;28;20011;-79
2022/10/23 06:05:27;;;;;;;;;;;15.40;73.30;;;;;;5082780;28;20006;-80
2022/10/23 06:08:16;;;;;;;;;;;15.40;73.30;;;;;;5101497;28;19916;-81
2022/10/23 06:10:42;;;;;;;;;;;15.40;73.30;;;;;;5096871;28;20386;-81
2022/10/23 06:13:09;;;;;;;;;;;15.40;73.30;;;;;;5088842;28;19915;-80
2022/10/23 06:15:35;;;;;;;;;;;15.40;73.30;;;;;;5093135;28;19924;-80
2022/10/23 06:18:21;;;;;;;;;;;15.40;73.30;;;;;;5106940;28;19938;-80
2022/10/23 06:21:10;;;;;;;;;;;15.40;73.30;;;;;;5105303;28;20293;-80
2022/10/23 06:23:37;;;;;;;;;;;15.40;73.30;;;;;;5095663;28;19931;-80
2022/10/23 06:26:17;;;;;;;;;;;15.40;73.30;;;;;;5086593;28;20304;-80
2022/10/23 06:29:09;;;;;;;;;;;15.40;73.30;;;;;;5101991;28;19911;-80
2022/10/23 06:31:36;;;;;;;;;;;15.40;73.30;;;;;;5090312;28;20461;-81
2022/10/23 06:34:03;;;;;;;;;;;15.40;73.30;;;;;;5073358;28;19947;-80
2022/10/23 06:36:30;;;;;;;;;;;15.40;73.30;;;;;;5091572;28;19916;-80
2022/10/23 06:39:07;;;;;;;;;;;15.40;73.30;;;;;;5093313;28;19962;-80
2022/10/23 06:41:51;;;;;;;;;;;15.40;73.30;;;;;;5106413;28;19980;-80
2022/10/23 06:44:37;;;;;;;;;;;15.40;73.30;;;;;;5110277;28;19970;-80
2022/10/23 06:47:09;;;;;;;;;;;15.40;73.30;;;;;;5080103;28;19928;-79
2022/10/23 06:49:54;;;;;;;;;;;15.40;73.30;;;;;;5110796;28;19923;-80
2022/10/23 06:52:19;;;;;;;;;;;15.40;73.30;;;;;;5093669;28;19919;-80
2022/10/23 06:54:46;;;;;;;;;;;15.50;73.30;;;;;;5075830;28;19951;-81
2022/10/23 06:57:23;;;;;;;;;;;15.40;73.30;;;;;;5099803;28;20657;-80
2022/10/23 06:59:49;;;;;;;;;;;15.50;73.30;;;;;;5090350;28;20387;-80
2022/10/23 07:02:15;;;;;;;;;;;15.50;73.30;;;;;;5094624;28;19923;-79
2022/10/23 07:04:41;;;;;;;;;;;15.40;73.30;;;;;;5093745;28;19920;-81
2022/10/23 07:07:18;;;;;;;;;;;15.50;73.30;;;;;;5090662;28;19919;-80
2022/10/23 07:09:46;;;;;;;;;;;15.50;73.30;;;;;;5099524;28;19911;-80
2022/10/23 07:12:36;;;;;;;;;;;15.50;73.30;;;;;;5103490;28;19916;-80
2022/10/23 07:15:25;;;;;;;;;;;15.50;73.30;;;;;;5097621;28;20273;-81
2022/10/23 07:17:51;;;;;;;;;;;15.50;73.30;;;;;;5102385;28;20018;-81
2022/10/23 07:20:18;;;;;;;;;;;15.50;73.30;;;;;;5114731;28;19927;-81
2022/10/23 07:22:51;;;;;;;;;;;15.60;73.30;;;;;;5096895;28;20026;-80
2022/10/23 07:25:24;;;;;;;;;;;15.50;73.30;;;;;;5096062;28;19936;-82
2022/10/23 07:27:53;;;;;;;;;;;15.60;73.30;;;;;;5098903;28;20435;-81
2022/10/23 07:30:19;;;;;;;;;;;15.50;73.30;;;;;;5110586;27;19969;-81
2022/10/23 07:32:49;;;;;;;;;;;15.50;73.30;;;;;;5088700;27;20488;-81
2022/10/23 07:35:34;;;;;;;;;;;15.60;73.30;;;;;;5101516;27;19923;-81
2022/10/23 07:38:05;;;;;;;;;;;15.50;73.30;;;;;;5086801;28;20434;-80
2022/10/23 07:40:35;;;;;;;;;;;15.60;73.40;;;;;;5098608;28;19923;-81
2022/10/23 07:43:02;;;;;;;;;;;15.60;73.40;;;;;;5076901;27;19932;-82
2022/10/23 07:45:28;;;;;;;;;;;15.60;73.40;;;;;;5084583;28;20291;-82
2022/10/23 07:47:54;;;;;;;;;;;15.60;73.40;;;;;;5111249;28;19916;-80
2022/10/23 07:50:23;;;;;;;;;;;15.60;73.40;;;;;;5096499;28;20352;-81
2022/10/23 07:52:49;;;;;;;;;;;15.60;73.30;;;;;;5107705;27;19985;-81
2022/10/23 07:55:16;;;;;;;;;;;15.60;73.30;;;;;;5109545;27;20018;-80
2022/10/23 07:57:47;;;;;;;;;;;15.60;73.40;;;;;;5094147;28;19924;-81
2022/10/23 08:00:40;;;;;;;;;;;15.60;73.40;;;;;;5093527;27;19999;-79
2022/10/23 08:03:30;;;;;;;;;;;15.60;73.40;;;;;;5108281;28;19924;-80
2022/10/23 08:05:56;;;;;;;;;;;15.60;73.30;;;;;;5110034;27;19911;-80
2022/10/23 08:08:22;;;;;;;;;;;15.60;73.40;;;;;;5114463;27;19916;-81
2022/10/23 08:10:52;;;;;;;;;;;15.70;73.40;;;;;;5102773;27;19950;-81
2022/10/23 08:13:25;;;;;;;;;;;15.70;73.40;;;;;;5110505;27;20271;-80
2022/10/23 08:15:57;;;;;;;;;;;15.70;73.40;;;;;;5101193;27;19938;-80
2022/10/23 08:18:55;;;;;;;;;;;15.70;73.40;;;;;;5089037;27;19916;-81
2022/10/23 08:21:22;;;;;;;;;;;15.70;73.40;;;;;;5108850;28;19916;-81
2022/10/23 08:23:51;;;;;;;;;;;15.70;73.40;;;;;;5107280;28;19918;-80
2022/10/23 08:26:19;;;;;;;;;;;15.70;73.40;;;;;;5098762;27;19948;-81
2022/10/23 08:28:45;;;;;;;;;;;15.70;73.40;;;;;;5100593;27;19911;-81
2022/10/23 08:31:12;;;;;;;;;;;15.70;73.40;;;;;;5095135;27;19922;-80
2022/10/23 08:33:39;;;;;;;;;;;15.70;73.40;;;;;;5108349;27;19907;-80
2022/10/23 08:36:14;;;;;;;;;;;15.80;73.40;;;;;;5100777;28;20002;-80
2022/10/23 08:38:39;;;;;;;;;;;15.80;73.40;;;;;;5095599;28;19916;-80
2022/10/23 08:41:34;;;;;;;;;;;15.80;73.40;;;;;;5096557;27;19919;-82
2022/10/23 08:44:24;;;;;;;;;;;15.80;73.40;;;;;;5109637;27;19920;-81
2022/10/23 08:46:53;;;;;;;;;;;15.80;73.40;;;;;;5109436;27;19916;-80
2022/10/23 08:49:54;;;;;;;;;;;15.80;73.40;;;;;;5074523;28;19916;-82
2022/10/23 08:52:43;;;;;;;;;;;15.80;73.40;;;;;;5110260;27;19915;-81
2022/10/23 08:55:27;;;;;;;;;;;15.80;73.40;;;;;;5100339;27;19911;-81
2022/10/23 08:57:57;;;;;;;;;;;15.90;73.40;;;;;;5116374;27;19912;-81
2022/10/23 09:00:23;;;;;;;;;;;15.90;73.40;;;;;;5099589;28;19916;-82
2022/10/23 09:02:49;;;;;;;;;;;15.90;73.40;;;;;;5112068;27;20363;-81
2022/10/23 09:05:17;;;;;;;;;;;15.90;73.40;;;;;;5098718;27;19916;-81
2022/10/23 09:07:49;;;;;;;;;;;15.90;73.40;;;;;;5108774;28;19912;-80
2022/10/23 09:10:33;;;;;;;;;;;16.00;73.50;;;;;;5092056;28;19945;-81
2022/10/23 09:13:01;;;;;;;;;;;16.00;73.40;;;;;;5098716;28;20352;-82
2022/10/23 09:15:34;;;;;;;;;;;16.00;73.40;;;;;;5095550;28;19958;-82
2022/10/23 09:18:05;;;;;;;;;;;16.00;73.50;;;;;;5111081;27;19912;-81
2022/10/23 09:20:33;;;;;;;;;;;16.00;73.40;;;;;;5103172;28;19913;-82
2022/10/23 09:23:17;;;;;;;;;;;16.00;73.40;;;;;;5102511;28;19922;-82
2022/10/23 09:25:44;;;;;;;;;;;16.00;73.40;;;;;;5106442;28;19920;-81
2022/10/23 09:28:20;;;;;;;;;;;16.10;73.50;;;;;;5102016;28;19912;-82
2022/10/23 09:30:46;;;;;;;;;;;16.10;73.50;;;;;;5098285;27;19926;-81
2022/10/23 09:33:21;;;;;;;;;;;16.10;73.50;;;;;;5094000;28;20269;-82
2022/10/23 09:35:56;;;;;;;;;;;16.10;73.40;;;;;;5117684;27;19950;-82
2022/10/23 09:38:28;;;;;;;;;;;16.10;73.40;;;;;;5103804;28;19915;-82
2022/10/23 09:40:54;;;;;;;;;;;16.20;73.40;;;;;;5102145;28;20135;-83
2022/10/23 09:43:22;;;;;;;;;;;16.20;73.40;;;;;;5110252;27;19919;-81
2022/10/23 09:45:56;;;;;;;;;;;16.20;73.40;;;;;;5082226;28;20022;-80
2022/10/23 09:48:22;;;;;;;;;;;16.20;73.40;;;;;;5101578;28;19915;-81
2022/10/23 09:50:49;;;;;;;;;;;16.20;73.40;;;;;;5104570;27;20426;-82
2022/10/23 09:53:22;;;;;;;;;;;16.30;73.40;;;;;;5092686;28;19937;-82
2022/10/23 09:55:52;;;;;;;;;;;16.30;73.40;;;;;;5096243;28;19964;-82
2022/10/23 09:58:19;;;;;;;;;;;16.30;73.40;;;;;;5110958;27;19920;-83
2022/10/23 10:00:46;;;;;;;;;;;16.30;73.40;;;;;;5108996;27;19919;-81
2022/10/23 10:03:21;;;;;;;;;;;16.30;73.40;;;;;;5100865;28;19975;-80
2022/10/23 10:06:00;;;;;;;;;;;16.40;73.40;;;;;;5104683;27;19939;-82
2022/10/23 10:08:39;;;;;;;;;;;16.40;73.40;;;;;;5107354;28;19912;-82
2022/10/23 10:11:16;;;;;;;;;;;16.40;73.40;;;;;;5100164;28;19918;-82
2022/10/23 10:13:48;;;;;;;;;;;16.40;73.40;;;;;;5104757;28;19920;-83
2022/10/23 10:16:14;;;;;;;;;;;16.40;73.40;;;;;;5102373;28;20589;-82
2022/10/23 10:18:47;;;;;;;;;;;16.50;73.40;;;;;;5092325;28;19961;-82
2022/10/23 10:21:15;;;;;;;;;;;16.50;73.40;;;;;;5112083;28;19912;-82
2022/10/23 10:24:00;;;;;;;;;;;16.50;73.40;;;;;;5104474;28;20379;-82
2022/10/23 10:26:44;;;;;;;;;;;16.50;73.30;;;;;;5090579;28;19920;-81
2022/10/23 10:29:16;;;;;;;;;;;16.50;73.40;;;;;;5095102;28;19994;-82
2022/10/23 10:32:01;;;;;;;;;;;16.60;73.40;;;;;;5102041;28;19923;-83
2022/10/23 10:34:49;;;;;;;;;;;16.60;73.40;;;;;;5102142;28;19912;-79
2022/10/23 10:37:21;;;;;;;;;;;16.60;73.40;;;;;;5104333;28;19964;-80
2022/10/23 10:39:46;;;;;;;;;;;16.70;73.40;;;;;;5091697;28;20311;-81
2022/10/23 10:42:20;;;;;;;;;;;16.70;73.30;;;;;;5098163;28;19912;-81
2022/10/23 10:44:55;;;;;;;;;;;16.70;73.30;;;;;;5106544;28;19928;-81
2022/10/23 10:47:24;;;;;;;;;;;16.70;73.30;;;;;;5099954;28;19919;-79
2022/10/23 10:49:50;;;;;;;;;;;16.80;73.30;;;;;;5107532;28;19922;-82
2022/10/23 10:52:28;;;;;;;;;;;16.80;73.30;;;;;;5107509;28;19952;-81
2022/10/23 10:54:59;;;;;;;;;;;16.80;73.30;;;;;;5112286;28;19916;-81
2022/10/23 10:57:30;;;;;;;;;;;16.90;73.30;;;;;;5107449;28;19912;-81
2022/10/23 10:59:58;;;;;;;;;;;16.80;73.20;;;;;;5107345;28;19912;-81
2022/10/23 11:02:59;;;;;;;;;;;16.90;73.30;;;;;;5105802;28;19909;-81
2022/10/23 11:05:33;;;;;;;;;;;16.90;73.20;;;;;;5024752;28;20405;-81
2022/10/23 11:08:04;;;;;;;;;;;16.90;73.20;;;;;;5090460;27;19911;-81
2022/10/23 11:10:31;;;;;;;;;;;17.00;73.30;;;;;;5102698;27;19955;-81
2022/10/23 11:12:57;;;;;;;;;;;17.00;73.20;;;;;;5102271;27;19976;-82
2022/10/23 11:15:38;;;;;;;;;;;17.00;73.20;;;;;;5097331;28;20375;-82
2022/10/23 11:18:10;;;;;;;;;;;17.00;73.20;;;;;;5090688;28;20321;-81
2022/10/23 11:20:37;;;;;;;;;;;17.10;73.20;;;;;;5106610;28;19908;-81
2022/10/23 11:23:03;;;;;;;;;;;17.10;73.20;;;;;;5113070;28;20419;-81
2022/10/23 11:25:45;;;;;;;;;;;17.10;73.10;;;;;;5108914;28;20014;-81
2022/10/23 11:28:18;;;;;;;;;;;17.20;73.20;;;;;;5106132;28;19919;-82
2022/10/23 11:30:44;;;;;;;;;;;17.20;73.10;;;;;;5102597;28;19912;-81
2022/10/23 11:33:29;;;;;;;;;;;17.20;73.10;;;;;;5102161;28;19960;-81
2022/10/23 11:36:00;;;;;;;;;;;17.30;73.10;;;;;;5110326;28;19927;-82
2022/10/23 11:38:30;;;;;;;;;;;17.30;73.10;;;;;;5110355;28;19912;-81
2022/10/23 11:40:58;;;;;;;;;;;17.30;73.10;;;;;;5113882;27;19957;-81
2022/10/23 11:43:32;;;;;;;;;;;17.30;73.10;;;;;;5104231;28;19911;-82
2022/10/23 11:45:58;;;;;;;;;;;17.40;73.10;;;;;;5112481;27;19911;-82
2022/10/23 11:48:50;;;;;;;;;;;17.40;73.10;;;;;;5102439;28;19943;-82
2022/10/23 11:51:25;;;;;;;;;;;17.40;73.10;;;;;;5130463;27;19912;-82
2022/10/23 11:53:50;;;;;;;;;;;17.40;73.00;;;;;;5110354;27;19978;-84
2022/10/23 11:56:18;;;;;;;;;;;17.50;73.00;;;;;;5091651;28;19915;-85
2022/10/23 11:58:51;;;;;;;;;;;17.50;73.10;;;;;;5100424;27;20034;-85
2022/10/23 12:01:36;;;;;;;;;;;17.50;73.10;;;;;;5105382;27;19920;-83
2022/10/23 12:04:13;;;;;;;;;;;17.60;73.20;;;;;;5089762;28;19924;-83
2022/10/23 12:06:41;;;;;;;;;;;17.60;73.20;;;;;;5099498;28;19911;-82
2022/10/23 12:09:20;;;;;;;;;;;17.60;73.30;;;;;;5103769;28;19916;-82
2022/10/23 12:11:47;;;;;;;;;;;17.70;73.30;;;;;;5101014;27;19912;-86
2022/10/23 12:14:33;;;;;;;;;;;17.70;73.30;;;;;;5096460;28;19912;-84
2022/10/23 12:16:58;;;;;;;;;;;17.80;73.30;;;;;;5118445;27;19912;-84
2022/10/23 12:19:26;;;;;;;;;;;17.80;73.20;;;;;;5081510;28;19919;-83
2022/10/23 12:21:53;;;;;;;;;;;17.80;73.20;;;;;;5102033;28;19926;-83
2022/10/23 12:24:25;;;;;;;;;;;17.90;73.20;;;;;;5100530;28;19924;-86
2022/10/23 12:27:05;;;;;;;;;;;17.90;73.20;;;;;;5087345;28;19981;-82
2022/10/23 12:29:30;;;;;;;;;;;17.90;73.20;;;;;;5103099;28;19916;-84
2022/10/23 12:31:56;;;;;;;;;;;17.90;73.10;;;;;;5093559;28;19992;-84
2022/10/23 12:34:44;;;;;;;;;;;18.00;73.10;;;;;;5095218;28;19916;-82
2022/10/23 12:37:09;;;;;;;;;;;18.00;73.10;;;;;;5100753;28;19999;-84
2022/10/23 12:39:37;;;;;;;;;;;18.00;73.00;;;;;;5099793;28;20127;-84
2022/10/23 12:42:04;;;;;;;;;;;18.10;73.10;;;;;;5084840;28;19963;-83
2022/10/23 12:44:29;;;;;;;;;;;18.10;73.10;;;;;;5079822;28;19927;-84
2022/10/23 12:46:57;;;;;;;;;;;18.10;73.00;;;;;;5088883;28;20160;-84
2022/10/23 12:49:25;;;;;;;;;;;18.20;73.10;;;;;;5082842;28;20348;-82
2022/10/23 12:51:58;;;;;;;;;;;18.20;73.00;;;;;;5101229;28;19916;-85
2022/10/23 12:54:24;;;;;;;;;;;18.20;73.00;;;;;;5101897;27;19920;-83
2022/10/23 12:56:50;;;;;;;;;;;18.20;72.90;;;;;;5097576;28;20372;-81
2022/10/23 12:59:17;;;;;;;;;;;18.30;72.90;;;;;;5092687;28;19927;-83
2022/10/23 13:01:43;;;;;;;;;;;18.30;73.00;;;;;;5101054;28;19912;-84
2022/10/23 13:04:15;;;;;;;;;;;18.30;72.90;;;;;;5096128;28;19933;-83
2022/10/23 13:06:41;;;;;;;;;;;18.40;72.90;;;;;;5098143;28;19968;-83
2022/10/23 13:09:13;;;;;;;;;;;18.40;72.90;;;;;;5101700;27;20014;-84
2022/10/23 13:11:48;;;;;;;;;;;18.40;72.90;;;;;;5081298;28;19928;-84
2022/10/23 13:14:49;;;;;;;;;;;18.40;72.80;;;;;;5081346;28;21071;-82
2022/10/23 13:17:14;;;;;;;;;;;18.50;72.90;;;;;;5072219;28;20435;-82
2022/10/23 13:19:40;;;;;;;;;;;18.50;72.80;;;;;;5094484;28;19912;-82
2022/10/23 13:22:32;;;;;;;;;;;18.50;72.80;;;;;;5096950;28;19924;-83
2022/10/23 13:24:58;;;;;;;;;;;18.60;72.90;;;;;;5080900;28;20384;-84
2022/10/23 13:27:29;;;;;;;;;;;18.60;72.80;;;;;;5095886;28;19978;-83
2022/10/23 13:29:55;;;;;;;;;;;18.60;72.80;;;;;;5096615;28;19995;-83
2022/10/23 13:32:23;;;;;;;;;;;18.70;72.90;;;;;;5078994;28;20652;-82
2022/10/23 13:34:54;;;;;;;;;;;18.70;72.90;;;;;;5080458;28;19928;-82
2022/10/23 13:37:25;;;;;;;;;;;18.70;72.90;;;;;;5086708;28;19926;-82
2022/10/23 13:40:01;;;;;;;;;;;18.70;72.70;;;;;;5080703;28;19927;-82
2022/10/23 13:42:26;;;;;;;;;;;18.80;72.80;;;;;;5093166;28;19916;-82
2022/10/23 13:44:52;;;;;;;;;;;18.80;72.70;;;;;;5096200;28;19961;-82
2022/10/23 13:47:18;;;;;;;;;;;18.90;72.70;;;;;;5079525;28;19931;-82
2022/10/23 13:49:44;;;;;;;;;;;18.90;72.70;;;;;;5083554;27;19911;-82
2022/10/23 13:52:11;;;;;;;;;;;18.90;72.70;;;;;;5097068;28;19981;-82
2022/10/23 13:54:37;;;;;;;;;;;18.90;72.70;;;;;;5095968;28;19918;-83
2022/10/23 13:57:03;;;;;;;;;;;18.90;72.60;;;;;;5094313;28;19908;-82
2022/10/23 13:59:28;;;;;;;;;;;19.00;72.70;;;;;;5093150;28;19951;-83
2022/10/23 14:01:56;;;;;;;;;;;19.00;72.60;;;;;;5098522;28;20396;-82
2022/10/23 14:04:22;;;;;;;;;;;19.00;72.70;;;;;;5086256;28;19938;-82
2022/10/23 14:06:48;;;;;;;;;;;19.10;72.70;;;;;;5098321;28;19920;-82
2022/10/23 14:09:15;;;;;;;;;;;19.10;72.60;;;;;;5083657;28;19916;-82
2022/10/23 14:11:42;;;;;;;;;;;19.10;72.60;;;;;;5093032;28;19912;-83
2022/10/23 14:14:08;;;;;;;;;;;19.10;72.50;;;;;;5092759;28;19916;-83
2022/10/23 14:16:33;;;;;;;;;;;19.10;72.50;;;;;;5081455;28;19916;-82
2022/10/23 14:18:59;;;;;;;;;;;19.20;72.50;;;;;;5092736;28;19915;-82
2022/10/23 14:21:25;;;;;;;;;;;19.10;72.40;;;;;;5098792;28;19931;-84
2022/10/23 14:23:51;;;;;;;;;;;19.20;72.50;;;;;;5076729;28;19930;-82
2022/10/23 14:26:22;;;;;;;;;;;19.20;72.40;;;;;;5098454;28;19928;-83
2022/10/23 14:28:50;;;;;;;;;;;19.20;72.40;;;;;;5081992;28;19919;-82
2022/10/23 14:31:16;;;;;;;;;;;19.20;72.40;;;;;;5097478;28;19923;-82
2022/10/23 14:33:42;;;;;;;;;;;19.30;72.40;;;;;;5076451;28;19965;-80
2022/10/23 14:36:08;;;;;;;;;;;19.30;72.40;;;;;;5096630;28;19984;-83
2022/10/23 14:38:34;;;;;;;;;;;19.30;72.40;;;;;;5098367;28;20419;-82